Time;durP1;ratioP1;P1;durP2;ratioP2;P2;SDS_P1;SDS_P2;PMS_P1;PMS_P2;Temp;Humidity;BMP_temperature;BMP_pressure;BME280_temperature;BME280_humidity;BME280_pressure;Samples;Min_cycle;Max_cycle;Signal;HPM_P1;HPM_P2
2023/04/18 00:01:49;;;;;;;5.27;4.67;;;7.60;76.90;;;;;;6299101;28;20257;-67
2023/04/18 00:04:49;;;;;;;5.13;4.63;;;7.50;77.40;;;;;;6265804;28;20670;-68
2023/04/18 00:07:51;;;;;;;7.17;5.33;;;7.50;77.50;;;;;;6289294;28;20208;-67
2023/04/18 00:10:52;;;;;;;6.30;4.60;;;;;;;;;;6291243;28;20181;-68
2023/04/18 00:13:53;;;;;;;5.83;4.93;;;;;;;;;;6280127;28;20190;-68
2023/04/18 00:16:54;;;;;;;5.67;4.50;;;;;;;;;;6306176;28;20189;-68
2023/04/18 00:19:57;;;;;;;5.60;4.97;;;;;;;;;;6308367;28;20206;-67
2023/04/18 00:22:59;;;;;;;4.73;4.20;;;;;;;;;;6316376;28;20316;-67
2023/04/18 00:26:00;;;;;;;5.03;4.27;;;;;;;;;;6299384;28;20197;-68
2023/04/18 00:29:04;;;;;;;4.50;4.10;;;;;;;;;;6297684;28;20241;-67
2023/04/18 00:32:06;;;;;;;4.97;4.43;;;;;;;;;;6308148;28;20206;-68
2023/04/18 00:35:07;;;;;;;4.60;4.20;;;;;;;;;;6318039;28;20236;-67
2023/04/18 00:38:08;;;;;;;7.90;5.27;;;;;;;;;;6280943;28;20223;-68
2023/04/18 00:41:08;;;;;;;7.37;4.60;;;7.50;77.20;;;;;;6306294;28;20195;-67
2023/04/18 00:44:09;;;;;;;6.03;4.57;;;7.40;78.50;;;;;;6263111;28;20196;-67
2023/04/18 00:47:10;;;;;;;6.20;4.53;;;7.40;78.40;;;;;;6280384;28;20217;-68
2023/04/18 00:50:11;;;;;;;6.13;4.93;;;7.30;78.50;;;;;;6271938;28;20189;-67
2023/04/18 00:53:12;;;;;;;4.73;4.23;;;7.30;78.50;;;;;;6282445;28;20189;-67
2023/04/18 00:56:13;;;;;;;5.47;4.83;;;7.20;78.30;;;;;;6301797;28;20204;-68
2023/04/18 00:59:14;;;;;;;4.17;3.77;;;7.20;78.70;;;;;;6283693;28;20196;-68
2023/04/18 01:02:16;;;;;;;4.93;4.37;;;7.20;78.20;;;;;;6289605;28;20201;-67
2023/04/18 01:05:17;;;;;;;6.17;4.83;;;7.20;78.30;;;;;;6281512;28;20185;-67
2023/04/18 01:08:20;;;;;;;4.57;4.17;;;;;;;;;;6312312;28;20239;-67
2023/04/18 01:11:21;;;;;;;4.70;4.20;;;;;;;;;;6319954;28;20181;-67
2023/04/18 01:14:22;;;;;;;5.10;4.60;;;;;;;;;;6307575;28;20192;-67
2023/04/18 01:17:23;;;;;;;6.30;4.30;;;;;;;;;;6311524;28;20268;-67
2023/04/18 01:20:25;;;;;;;4.90;4.40;;;;;;;;;;6316594;28;20188;-67
2023/04/18 01:23:26;;;;;;;5.47;4.70;;;;;;;;;;6295077;28;20199;-68
2023/04/18 01:26:27;;;;;;;5.20;4.70;;;;;;;;;;6301793;28;20211;-67
2023/04/18 01:29:29;;;;;;;6.00;4.60;;;;;;;;;;6286537;28;20189;-68
2023/04/18 01:32:30;;;;;;;5.77;5.13;;;;;;;;;;6320165;28;20272;-67
2023/04/18 01:35:31;;;;;;;8.13;4.93;;;;;;;;;;6284579;28;20289;-67
2023/04/18 01:38:32;;;;;;;6.37;5.13;;;;;;;;;;6296109;28;20247;-67
2023/04/18 01:41:33;;;;;;;4.80;4.33;;;;;;;;;;6291812;28;20262;-67
2023/04/18 01:44:34;;;;;;;6.43;4.93;;;;;;;;;;6273094;28;20197;-67
2023/04/18 01:47:35;;;;;;;4.80;4.33;;;;;;;;;;6295673;28;20287;-68
2023/04/18 01:50:36;;;;;;;5.87;4.80;;;;;;;;;;6298217;28;20189;-67
2023/04/18 01:53:37;;;;;;;5.17;4.60;;;;;;;;;;6298656;28;20204;-68
2023/04/18 01:56:38;;;;;;;5.90;5.30;;;;;;;;;;6280777;28;20184;-68
2023/04/18 01:59:39;;;;;;;4.93;4.13;;;;;;;;;;6277934;28;20221;-68
2023/04/18 02:02:40;;;;;;;5.90;4.93;;;;;;;;;;6284265;28;20203;-68
2023/04/18 02:05:41;;;;;;;7.10;5.60;;;6.70;81.30;;;;;;6281742;28;20645;-68
2023/04/18 02:08:42;;;;;;;5.83;5.23;;;6.90;82.20;;;;;;6262528;28;20224;-68
2023/04/18 02:11:42;;;;;;;5.50;4.87;;;7.00;81.80;;;;;;6304036;28;20201;-68
2023/04/18 02:14:43;;;;;;;6.00;5.03;;;7.00;81.20;;;;;;6284709;28;20242;-67
2023/04/18 02:17:44;;;;;;;5.20;4.70;;;7.00;80.80;;;;;;6277644;28;20273;-68
2023/04/18 02:20:45;;;;;;;5.20;4.70;;;7.10;80.80;;;;;;6265338;28;20246;-68
2023/04/18 02:23:45;;;;;;;4.87;4.40;;;7.20;80.70;;;;;;6257617;28;20197;-68
2023/04/18 02:26:46;;;;;;;5.17;4.67;;;7.20;80.60;;;;;;6283316;28;20229;-68
2023/04/18 02:29:47;;;;;;;5.60;4.67;;;7.20;80.80;;;;;;6280899;28;20246;-68
2023/04/18 02:32:51;;;;;;;6.57;4.63;;;7.30;80.90;;;;;;6257268;28;20197;-68
2023/04/18 02:35:52;;;;;;;5.27;4.77;;;7.30;81.00;;;;;;6280733;28;20202;-68
2023/04/18 02:38:54;;;;;;;5.47;4.97;;;7.40;80.90;;;;;;6288023;28;20241;-68
2023/04/18 02:41:54;;;;;;;5.40;4.63;;;7.40;81.10;;;;;;6279738;28;20193;-67
2023/04/18 02:44:55;;;;;;;5.43;4.70;;;7.50;81.50;;;;;;6297400;28;20184;-68
2023/04/18 02:47:56;;;;;;;4.60;4.17;;;7.50;81.40;;;;;;6287864;28;20217;-68
2023/04/18 02:51:07;;;;;;;4.83;4.20;;;7.60;81.00;;;;;;6286363;28;20196;-68
2023/04/18 02:54:07;;;;;;;4.67;4.17;;;7.60;80.70;;;;;;6300703;28;20190;-68
2023/04/18 02:57:08;;;;;;;5.10;3.93;;;7.70;80.50;;;;;;6287886;28;20208;-68
2023/04/18 03:00:09;;;;;;;4.93;4.43;;;7.80;80.40;;;;;;6295199;28;20204;-68
2023/04/18 03:03:11;;;;;;;5.53;4.50;;;7.80;80.50;;;;;;6289168;28;20196;-67
2023/04/18 03:06:12;;;;;;;4.60;3.80;;;7.80;80.40;;;;;;6269565;28;20224;-67
2023/04/18 03:09:13;;;;;;;5.97;4.90;;;7.80;80.50;;;;;;6290594;28;20185;-67
2023/04/18 03:12:14;;;;;;;5.03;4.57;;;7.80;80.20;;;;;;6283538;28;20213;-67
2023/04/18 03:15:15;;;;;;;4.43;4.03;;;7.80;80.30;;;;;;6278479;28;20218;-68
2023/04/18 03:18:16;;;;;;;4.67;4.27;;;7.90;80.40;;;;;;6276936;28;20189;-68
2023/04/18 03:21:16;;;;;;;4.77;4.27;;;7.90;80.30;;;;;;6294167;28;20215;-68
2023/04/18 03:24:17;;;;;;;6.90;4.27;;;7.80;80.20;;;;;;6275380;28;20236;-69
2023/04/18 03:27:18;;;;;;;4.70;4.30;;;7.80;80.50;;;;;;6282849;28;20247;-68
2023/04/18 03:30:19;;;;;;;4.90;4.50;;;7.80;80.50;;;;;;6301889;28;20189;-68
2023/04/18 03:33:21;;;;;;;5.10;4.60;;;7.90;80.40;;;;;;6310067;28;20234;-68
2023/04/18 03:36:24;;;;;;;5.03;4.27;;;7.80;80.50;;;;;;6287352;28;20228;-68
2023/04/18 03:39:24;;;;;;;4.67;4.27;;;7.90;80.70;;;;;;6263158;28;20198;-68
2023/04/18 03:42:25;;;;;;;4.60;4.20;;;7.90;80.70;;;;;;6291158;28;20241;-68
2023/04/18 03:45:26;;;;;;;4.70;4.20;;;7.90;80.90;;;;;;6286567;28;20199;-68
2023/04/18 03:48:27;;;;;;;4.37;3.97;;;7.90;81.20;;;;;;6272521;28;20225;-68
2023/04/18 03:51:33;;;;;;;4.07;3.67;;;7.90;81.50;;;;;;6290862;28;20287;-68
2023/04/18 03:54:34;;;;;;;3.37;3.07;;;8.00;81.40;;;;;;6294247;28;20180;-68
2023/04/18 03:57:34;;;;;;;4.23;3.53;;;8.00;81.50;;;;;;6269780;28;20193;-68
2023/04/18 04:00:35;;;;;;;7.97;3.67;;;8.00;81.70;;;;;;6289767;28;20204;-67
2023/04/18 04:03:36;;;;;;;3.80;3.47;;;8.00;81.80;;;;;;6301563;28;20185;-67
2023/04/18 04:06:36;;;;;;;3.60;3.30;;;8.00;81.80;;;;;;6286960;28;20236;-67
2023/04/18 04:09:37;;;;;;;4.23;3.83;;;8.10;81.70;;;;;;6270412;28;20680;-65
2023/04/18 04:12:38;;;;;;;3.97;3.57;;;8.10;81.70;;;;;;6280912;28;20198;-67
2023/04/18 04:15:38;;;;;;;4.47;3.73;;;8.10;81.70;;;;;;6294890;28;20232;-68
2023/04/18 04:18:39;;;;;;;4.77;4.00;;;8.10;81.90;;;;;;6294635;28;20189;-67
2023/04/18 04:21:40;;;;;;;4.90;3.80;;;8.20;82.00;;;;;;6288962;28;20210;-68
2023/04/18 04:24:41;;;;;;;4.23;3.83;;;8.20;81.80;;;;;;6293029;28;20188;-68
2023/04/18 04:27:43;;;;;;;7.50;3.97;;;8.20;81.50;;;;;;6291438;28;20251;-67
2023/04/18 04:30:44;;;;;;;6.67;4.37;;;8.20;81.50;;;;;;6282345;28;20185;-68
2023/04/18 04:33:45;;;;;;;8.23;4.80;;;8.20;81.40;;;;;;6276888;28;20229;-67
2023/04/18 04:36:46;;;;;;;5.40;4.50;;;8.20;81.00;;;;;;6300788;28;20192;-67
2023/04/18 04:39:47;;;;;;;5.97;3.90;;;8.20;81.10;;;;;;6288907;28;20216;-68
2023/04/18 04:42:52;;;;;;;5.03;4.60;;;8.30;81.20;;;;;;6263560;28;20253;-67
2023/04/18 04:45:54;;;;;;;4.63;4.13;;;8.40;81.60;;;;;;6271706;28;20190;-68
2023/04/18 04:48:55;;;;;;;4.83;4.20;;;8.40;81.30;;;;;;6275665;28;20209;-68
2023/04/18 04:51:56;;;;;;;4.00;3.60;;;8.50;81.30;;;;;;6298363;28;20250;-68
2023/04/18 04:54:57;;;;;;;5.77;4.20;;;8.60;81.40;;;;;;6267272;28;20185;-68
2023/04/18 04:57:57;;;;;;;4.50;4.10;;;8.60;81.40;;;;;;6282076;28;20189;-68
2023/04/18 05:00:58;;;;;;;5.63;4.27;;;8.60;80.70;;;;;;6283692;28;20219;-68
2023/04/18 05:03:59;;;;;;;4.93;4.53;;;8.70;80.50;;;;;;6298089;28;20189;-68
2023/04/18 05:07:00;;;;;;;4.50;4.10;;;8.80;80.40;;;;;;6290111;28;20266;-67
2023/04/18 05:10:00;;;;;;;5.77;3.93;;;8.80;80.20;;;;;;6283459;28;20189;-67
2023/04/18 05:13:02;;;;;;;4.33;3.50;;;8.90;80.10;;;;;;6277296;28;20196;-67
2023/04/18 05:16:04;;;;;;;3.83;3.23;;;9.00;80.10;;;;;;6271806;28;20185;-68
2023/04/18 05:19:05;;;;;;;3.53;2.83;;;9.10;80.00;;;;;;6280137;28;20230;-68
2023/04/18 05:22:06;;;;;;;3.73;2.97;;;9.20;80.00;;;;;;6264788;28;20185;-68
2023/04/18 05:25:07;;;;;;;3.77;3.00;;;9.30;79.70;;;;;;6280774;28;20325;-67
2023/04/18 05:28:07;;;;;;;3.90;3.30;;;9.40;79.20;;;;;;6280696;28;20240;-68
2023/04/18 05:31:08;;;;;;;3.40;3.00;;;9.50;78.90;;;;;;6291265;28;20197;-68
2023/04/18 05:34:09;;;;;;;3.27;2.97;;;9.60;78.80;;;;;;6283270;28;20232;-68
2023/04/18 05:37:10;;;;;;;3.10;2.80;;;9.80;78.80;;;;;;6267965;28;20272;-68
2023/04/18 05:40:11;;;;;;;3.57;2.50;;;10.00;78.70;;;;;;6251898;28;20244;-68
2023/04/18 05:43:12;;;;;;;2.50;2.30;;;10.00;77.90;;;;;;6284178;28;20193;-68
2023/04/18 05:46:12;;;;;;;2.10;1.90;;;10.20;75.30;;;;;;6285712;28;20192;-69
2023/04/18 05:49:13;;;;;;;2.80;1.97;;;10.30;75.30;;;;;;6300324;28;20243;-68
2023/04/18 05:52:14;;;;;;;1.50;1.40;;;10.40;69.40;;;;;;6284036;28;20180;-68
2023/04/18 05:55:15;;;;;;;1.57;1.10;;;10.50;67.80;;;;;;6279119;28;20189;-68
2023/04/18 05:58:15;;;;;;;2.13;1.20;;;10.60;67.60;;;;;;6262376;28;20194;-68
2023/04/18 06:01:20;;;;;;;1.10;0.90;;;10.80;64.80;;;;;;6293512;28;20208;-68
2023/04/18 06:04:20;;;;;;;1.40;1.30;;;10.80;65.60;;;;;;6265603;28;20189;-68
2023/04/18 06:07:23;;;;;;;4.77;1.30;;;11.00;63.40;;;;;;6263034;28;20240;-68
2023/04/18 06:10:24;;;;;;;1.73;1.13;;;11.10;63.20;;;;;;6260146;28;20226;-68
2023/04/18 06:13:25;;;;;;;1.20;1.10;;;11.30;63.00;;;;;;6285029;28;20197;-68
2023/04/18 06:16:26;;;;;;;1.50;0.90;;;11.30;63.00;;;;;;6272138;28;20197;-68
2023/04/18 06:19:26;;;;;;;1.83;1.00;;;11.40;61.70;;;;;;6304622;28;20235;-68
2023/04/18 06:22:27;;;;;;;1.23;1.13;;;11.50;62.00;;;;;;6275417;28;20193;-68
2023/04/18 06:25:28;;;;;;;1.03;0.90;;;11.70;60.70;;;;;;6290383;28;20193;-69
2023/04/18 06:28:28;;;;;;;0.63;0.63;;;11.80;61.30;;;;;;6280309;28;20224;-68
2023/04/18 06:31:29;;;;;;;1.50;0.73;;;11.90;60.50;;;;;;6292328;28;20272;-68
2023/04/18 06:34:30;;;;;;;1.10;0.90;;;12.00;60.90;;;;;;6279093;28;20233;-69
2023/04/18 06:37:30;;;;;;;0.77;0.70;;;12.20;60.30;;;;;;6275291;28;20217;-67
2023/04/18 06:40:31;;;;;;;0.60;0.60;;;12.30;58.80;;;;;;6281576;28;20192;-68
2023/04/18 06:43:32;;;;;;;0.60;0.57;;;12.30;58.00;;;;;;6265439;28;20192;-68
2023/04/18 06:46:32;;;;;;;1.20;0.80;;;12.50;58.10;;;;;;6281560;28;20221;-68
2023/04/18 06:49:33;;;;;;;0.73;0.70;;;12.50;58.90;;;;;;6266649;28;20193;-68
2023/04/18 06:52:39;;;;;;;0.60;0.60;;;12.50;57.40;;;;;;6282479;28;20186;-68
2023/04/18 06:55:39;;;;;;;2.70;0.70;;;12.70;57.60;;;;;;6295488;28;20208;-69
2023/04/18 06:58:40;;;;;;;0.63;0.63;;;12.80;57.40;;;;;;6284651;28;20196;-68
2023/04/18 07:01:41;;;;;;;5.07;1.30;;;12.90;57.40;;;;;;6283063;28;20199;-69
2023/04/18 07:04:42;;;;;;;1.83;1.10;;;13.10;57.00;;;;;;6268523;28;20186;-68
2023/04/18 07:07:42;;;;;;;0.70;0.70;;;13.20;56.70;;;;;;6306171;28;20205;-68
2023/04/18 07:10:43;;;;;;;1.47;0.63;;;13.30;55.40;;;;;;6287848;28;20194;-69
2023/04/18 07:13:46;;;;;;;0.90;0.50;;;13.50;56.20;;;;;;6302814;28;20191;-69
2023/04/18 07:16:46;;;;;;;1.03;0.63;;;13.50;56.00;;;;;;6269365;28;20185;-68
2023/04/18 07:19:47;;;;;;;2.60;0.83;;;13.60;54.00;;;;;;6283559;28;20210;-68
2023/04/18 07:22:48;;;;;;;1.57;0.60;;;13.70;54.20;;;;;;6280676;28;20198;-68
2023/04/18 07:25:48;;;;;;;1.57;0.70;;;13.60;54.30;;;;;;6284929;28;20264;-68
2023/04/18 07:28:49;;;;;;;0.50;0.50;;;13.60;54.60;;;;;;6275139;28;20217;-69
2023/04/18 07:31:50;;;;;;;0.50;0.50;;;13.70;53.70;;;;;;6256536;28;20182;-69
2023/04/18 07:34:51;;;;;;;0.50;0.50;;;13.80;53.90;;;;;;6275312;28;20220;-68
2023/04/18 07:37:53;;;;;;;0.60;0.60;;;14.00;55.70;;;;;;6283760;28;20184;-69
2023/04/18 07:40:58;;;;;;;1.20;0.60;;;14.20;55.20;;;;;;6283617;28;20192;-68
2023/04/18 07:44:00;;;;;;;0.50;0.50;;;14.20;53.20;;;;;;6280824;28;20207;-69
2023/04/18 07:47:02;;;;;;;0.90;0.70;;;14.30;54.00;;;;;;6288368;28;20222;-68
2023/04/18 07:50:03;;;;;;;0.67;0.60;;;14.40;53.90;;;;;;6284026;28;20178;-69
2023/04/18 07:53:03;;;;;;;0.60;0.60;;;14.50;53.30;;;;;;6261009;28;20184;-69
2023/04/18 07:56:04;;;;;;;0.40;0.30;;;14.50;51.60;;;;;;6281425;28;20185;-68
2023/04/18 07:59:05;;;;;;;1.37;0.60;;;14.30;51.10;;;;;;6264374;28;20186;-69
2023/04/18 08:02:06;;;;;;;0.70;0.50;;;14.30;52.30;;;;;;6288955;28;20211;-68
2023/04/18 08:05:08;;;;;;;0.40;0.40;;;14.40;52.10;;;;;;6291039;28;20280;-69
2023/04/18 08:08:10;;;;;;;0.60;0.60;;;14.60;53.10;;;;;;6275344;28;20214;-68
2023/04/18 08:11:11;;;;;;;0.57;0.57;;;14.70;53.10;;;;;;6284567;28;20253;-68
2023/04/18 08:14:12;;;;;;;0.50;0.50;;;14.80;52.80;;;;;;6262892;28;20192;-68
2023/04/18 08:17:13;;;;;;;0.40;0.40;;;14.90;51.20;;;;;;6296079;28;20189;-68
2023/04/18 08:20:14;;;;;;;1.50;0.40;;;15.00;52.30;;;;;;6271848;28;20242;-68
2023/04/18 08:23:15;;;;;;;0.90;0.80;;;15.00;50.70;;;;;;6266637;28;20189;-68
2023/04/18 08:26:15;;;;;;;0.77;0.60;;;15.00;50.70;;;;;;6274072;28;20242;-68
2023/04/18 08:29:16;;;;;;;0.60;0.60;;;15.00;49.60;;;;;;6256491;28;20197;-69
2023/04/18 08:32:17;;;;;;;1.53;0.70;;;15.00;50.40;;;;;;6295393;28;20185;-68
2023/04/18 08:35:18;;;;;;;1.03;0.80;;;15.20;51.20;;;;;;6280835;28;20233;-68
2023/04/18 08:38:19;;;;;;;0.90;0.80;;;15.20;51.00;;;;;;6285930;28;20185;-69
2023/04/18 08:41:22;;;;;;;1.00;0.63;;;15.10;51.20;;;;;;6287656;28;20189;-68
2023/04/18 08:44:23;;;;;;;0.70;0.43;;;15.00;53.30;;;;;;6286115;28;20186;-68
2023/04/18 08:47:24;;;;;;;1.87;0.50;;;15.10;51.20;;;;;;6288491;28;20266;-68
2023/04/18 08:50:25;;;;;;;0.60;0.47;;;15.20;51.20;;;;;;6292624;28;20185;-68
2023/04/18 08:53:26;;;;;;;0.40;0.40;;;15.20;51.40;;;;;;6255454;28;20190;-69
2023/04/18 08:56:27;;;;;;;0.40;0.40;;;15.20;52.80;;;;;;6282105;28;20216;-69
2023/04/18 08:59:29;;;;;;;0.30;0.30;;;15.20;54.00;;;;;;6277807;28;20217;-68
2023/04/18 09:02:43;;;;;;;2.30;0.43;;;15.20;54.20;;;;;;6279460;28;20190;-69
2023/04/18 09:06:08;;;;;;;0.30;0.30;;;15.10;54.70;;;;;;6296307;28;20185;-68
2023/04/18 09:09:08;;;;;;;0.77;0.60;;;15.00;56.40;;;;;;6283006;28;20236;-69
2023/04/18 09:12:13;;;;;;;1.00;0.90;;;14.90;57.20;;;;;;6278821;28;20227;-68
2023/04/18 09:15:22;;;;;;;0.53;0.37;;;14.80;59.60;;;;;;6287005;28;20227;-69
2023/04/18 09:18:23;;;;;;;0.50;0.50;;;14.70;56.80;;;;;;6287904;28;20191;-68
2023/04/18 09:21:23;;;;;;;0.53;0.50;;;14.80;54.60;;;;;;6277956;28;20198;-69
2023/04/18 09:24:26;;;;;;;0.57;0.50;;;14.80;53.30;;;;;;6260815;28;20200;-68
2023/04/18 09:27:33;;;;;;;0.40;0.40;;;15.00;52.60;;;;;;6295630;28;20312;-69
2023/04/18 09:30:39;;;;;;;0.50;0.50;;;15.20;52.50;;;;;;6286871;28;20194;-68
2023/04/18 09:33:51;;;;;;;0.53;0.40;;;15.30;52.30;;;;;;6310213;28;20237;-69
2023/04/18 09:37:12;;;;;;;0.37;0.37;;;15.60;51.00;;;;;;6291520;28;20199;-68
2023/04/18 09:40:17;;;;;;;0.70;0.40;;;15.80;51.10;;;;;;6279271;28;20201;-68
2023/04/18 09:43:19;;;;;;;0.40;0.40;;;16.00;49.40;;;;;;6305668;28;20189;-69
2023/04/18 09:46:21;;;;;;;0.50;0.50;;;16.20;49.20;;;;;;6285512;28;20221;-67
2023/04/18 09:49:22;;;;;;;1.00;0.40;;;16.40;49.10;;;;;;6266001;28;20188;-66
2023/04/18 09:52:27;;;;;;;1.13;0.50;;;16.40;48.60;;;;;;6314483;28;20268;-67
2023/04/18 09:55:29;;;;;;;0.50;0.50;;;16.40;49.20;;;;;;6295039;28;20266;-67
2023/04/18 09:58:33;;;;;;;0.70;0.60;;;16.20;47.50;;;;;;6279577;28;20206;-66
2023/04/18 10:01:34;;;;;;;1.20;1.10;;;16.10;49.20;;;;;;6276056;28;20196;-67
2023/04/18 10:04:35;;;;;;;1.20;1.00;;;16.00;50.30;;;;;;6307624;28;20285;-66
2023/04/18 10:07:37;;;;;;;3.77;0.87;;;15.90;51.30;;;;;;6276438;28;20232;-67
2023/04/18 10:10:38;;;;;;;1.50;1.10;;;16.00;50.90;;;;;;6286663;28;20189;-67
2023/04/18 10:13:41;;;;;;;2.20;1.60;;;16.00;49.70;;;;;;6273438;28;20185;-67
2023/04/18 10:16:44;;;;;;;2.43;2.23;;;16.00;51.80;;;;;;6297261;28;20196;-66
2023/04/18 10:19:46;;;;;;;2.47;2.27;;;15.70;53.60;;;;;;6280483;28;20205;-66
2023/04/18 10:22:48;;;;;;;2.23;2.00;;;15.70;54.90;;;;;;6277787;28;20193;-66
2023/04/18 10:25:49;;;;;;;4.70;2.63;;;15.80;55.30;;;;;;6280896;28;20217;-67
2023/04/18 10:28:51;;;;;;;3.23;2.23;;;15.70;55.80;;;;;;6296923;28;20214;-66
2023/04/18 10:31:52;;;;;;;2.73;2.40;;;15.60;54.70;;;;;;6300348;28;20189;-67
2023/04/18 10:34:53;;;;;;;3.17;2.40;;;15.50;54.20;;;;;;6287980;28;20267;-67
2023/04/18 10:37:58;;;;;;;4.10;2.70;;;15.40;53.50;;;;;;6263583;28;20218;-66
2023/04/18 10:41:21;;;;;;;2.73;1.60;;;15.20;54.90;;;;;;6278664;28;20196;-66
2023/04/18 10:44:22;;;;;;;3.23;1.80;;;15.20;55.00;;;;;;6291290;28;20190;-66
2023/04/18 10:47:23;;;;;;;4.13;1.73;;;15.20;54.00;;;;;;6282538;28;20213;-67
2023/04/18 10:50:24;;;;;;;1.70;1.60;;;15.10;55.30;;;;;;6281839;28;20217;-67
2023/04/18 10:53:25;;;;;;;3.13;1.63;;;15.10;56.00;;;;;;6285748;28;20215;-66
2023/04/18 10:56:27;;;;;;;1.47;1.10;;;15.10;56.00;;;;;;6285869;28;20203;-67
2023/04/18 10:59:30;;;;;;;3.43;1.80;;;15.20;55.20;;;;;;6271183;28;20185;-66
2023/04/18 11:02:32;;;;;;;2.87;1.97;;;15.20;54.80;;;;;;6271643;28;20193;-66
2023/04/18 11:05:33;;;;;;;2.67;2.10;;;15.00;55.90;;;;;;6289544;28;20236;-66
2023/04/18 11:08:34;;;;;;;6.27;2.40;;;15.00;56.70;;;;;;6298643;28;20209;-67
2023/04/18 11:11:35;;;;;;;3.20;2.23;;;15.00;56.60;;;;;;6264949;28;20193;-66
2023/04/18 11:14:42;;;;;;;2.90;2.17;;;14.90;58.00;;;;;;6278313;28;20190;-66
2023/04/18 11:17:43;;;;;;;2.30;2.10;;;14.90;58.10;;;;;;6307586;28;20193;-66
2023/04/18 11:20:49;;;;;;;3.00;2.63;;;14.80;58.20;;;;;;6325127;28;20267;-66
2023/04/18 11:23:49;;;;;;;2.70;2.23;;;14.80;59.30;;;;;;6316489;28;20179;-67
2023/04/18 11:26:54;;;;;;;2.20;2.00;;;14.80;60.00;;;;;;6263827;28;20296;-66
2023/04/18 11:29:55;;;;;;;3.50;2.47;;;14.80;60.60;;;;;;6273226;28;20284;-66
2023/04/18 11:32:56;;;;;;;3.00;2.63;;;14.80;61.70;;;;;;6281031;28;20187;-65
2023/04/18 11:35:58;;;;;;;2.97;2.60;;;14.80;61.60;;;;;;6294336;28;20188;-67
2023/04/18 11:38:59;;;;;;;4.07;2.80;;;14.60;62.00;;;;;;6284984;28;20197;-66
2023/04/18 11:42:00;;;;;;;2.77;2.50;;;14.50;62.90;;;;;;6261671;28;20213;-66
2023/04/18 11:45:02;;;;;;;3.57;2.77;;;14.50;62.50;;;;;;6294986;28;20232;-66
2023/04/18 11:48:03;;;;;;;4.53;2.80;;;14.40;63.20;;;;;;6306406;28;20229;-66
2023/04/18 11:51:28;;;;;;;2.97;2.67;;;14.20;64.70;;;;;;6280055;28;20196;-66
2023/04/18 11:54:41;;;;;;;2.67;2.47;;;14.20;65.30;;;;;;6282438;28;20243;-66
2023/04/18 11:57:51;;;;;;;4.63;2.50;;;14.20;67.20;;;;;;6287918;28;20256;-66
2023/04/18 12:00:52;;;;;;;5.20;2.10;;;14.20;66.00;;;;;;6298636;28;20182;-66
2023/04/18 12:04:03;;;;;;;2.70;2.20;;;14.30;66.50;;;;;;6280326;28;20551;-65
2023/04/18 12:07:04;;;;;;;2.43;2.23;;;14.40;65.80;;;;;;6281549;28;20218;-65
2023/04/18 12:10:21;;;;;;;3.00;2.00;;;14.50;65.30;;;;;;6279372;28;20213;-66
2023/04/18 12:13:30;;;;;;;3.87;2.00;;;14.60;64.00;;;;;;6290549;28;20178;-66
2023/04/18 12:16:32;;;;;;;3.40;2.23;;;14.60;62.20;;;;;;6287289;28;20250;-66
2023/04/18 12:19:33;;;;;;;1.70;1.53;;;14.60;63.00;;;;;;6286511;28;20222;-66
2023/04/18 12:22:38;;;;;;;2.23;1.80;;;14.70;63.30;;;;;;6301393;28;20192;-66
2023/04/18 12:25:40;;;;;;;2.27;1.90;;;14.70;62.00;;;;;;6295999;28;20194;-66
2023/04/18 12:28:44;;;;;;;1.90;1.70;;;14.80;62.00;;;;;;6283956;28;20245;-66
2023/04/18 12:31:46;;;;;;;1.77;1.63;;;14.90;61.90;;;;;;6288345;28;20240;-67
2023/04/18 12:34:46;;;;;;;2.63;1.80;;;15.10;61.80;;;;;;6269519;28;20328;-66
2023/04/18 12:37:48;;;;;;;1.60;1.47;;;15.30;60.20;;;;;;6288863;28;20181;-65
2023/04/18 12:40:50;;;;;;;2.70;1.80;;;15.50;60.00;;;;;;6284316;28;20189;-65
2023/04/18 12:43:51;;;;;;;3.13;1.90;;;15.60;59.10;;;;;;6290494;28;20190;-66
2023/04/18 12:46:52;;;;;;;1.70;1.47;;;15.80;59.40;;;;;;6280406;28;20209;-66
2023/04/18 12:49:52;;;;;;;1.73;1.63;;;16.00;59.60;;;;;;6281876;28;20235;-66
2023/04/18 12:52:56;;;;;;;2.73;1.80;;;16.00;59.20;;;;;;6285207;28;20200;-66
2023/04/18 12:55:56;;;;;;;2.20;2.00;;;16.00;59.00;;;;;;6307852;28;20206;-66
2023/04/18 12:58:57;;;;;;;2.07;1.50;;;16.00;58.60;;;;;;6311160;28;20186;-66
2023/04/18 13:01:58;;;;;;;1.97;1.70;;;16.00;57.80;;;;;;6286136;28;20193;-67
2023/04/18 13:04:58;;;;;;;1.87;1.77;;;16.00;58.60;;;;;;6282552;28;20186;-67
2023/04/18 13:07:59;;;;;;;1.63;1.53;;;16.10;58.70;;;;;;6279771;28;20216;-66
2023/04/18 13:11:00;;;;;;;1.67;1.30;;;16.30;58.60;;;;;;6287104;28;20182;-68
2023/04/18 13:14:01;;;;;;;1.47;1.37;;;16.20;57.60;;;;;;6265991;28;20292;-68
2023/04/18 13:17:01;;;;;;;3.53;1.60;;;16.00;58.40;;;;;;6279927;28;20208;-68
2023/04/18 13:20:09;;;;;;;1.40;1.30;;;15.80;58.50;;;;;;6290540;28;20189;-68
2023/04/18 13:23:09;;;;;;;1.30;1.20;;;15.90;58.40;;;;;;6290311;28;20208;-68
2023/04/18 13:26:10;;;;;;;1.10;1.00;;;15.90;58.30;;;;;;6290412;28;20196;-69
2023/04/18 13:29:11;;;;;;;1.47;1.30;;;16.00;59.00;;;;;;6254118;28;20309;-69
2023/04/18 13:32:12;;;;;;;1.33;1.10;;;16.00;59.10;;;;;;6262159;28;20195;-69
2023/04/18 13:35:12;;;;;;;1.83;1.00;;;16.10;58.10;;;;;;6296331;28;20232;-68
2023/04/18 13:38:13;;;;;;;1.27;1.00;;;16.10;58.20;;;;;;6286256;28;20221;-68
2023/04/18 13:41:14;;;;;;;1.20;0.87;;;16.10;56.10;;;;;;6291496;28;20206;-71
2023/04/18 13:44:14;;;;;;;1.57;1.30;;;16.00;57.20;;;;;;6303796;28;20198;-68
2023/04/18 13:47:15;;;;;;;0.80;0.70;;;16.00;57.40;;;;;;6277253;28;20217;-69
2023/04/18 13:50:16;;;;;;;1.23;1.13;;;15.90;57.80;;;;;;6294092;28;20191;-68
2023/04/18 13:53:17;;;;;;;1.87;1.10;;;15.80;58.40;;;;;;6275412;28;20212;-68
2023/04/18 13:56:17;;;;;;;1.53;1.30;;;15.70;58.00;;;;;;6300633;28;20180;-68
2023/04/18 13:59:18;;;;;;;3.30;1.30;;;15.60;58.70;;;;;;6261066;28;20219;-70
2023/04/18 14:02:19;;;;;;;1.20;1.10;;;15.60;59.40;;;;;;6276867;28;20195;-70
2023/04/18 14:05:20;;;;;;;1.13;1.00;;;15.60;60.00;;;;;;6281567;28;20190;-69
2023/04/18 14:08:21;;;;;;;1.07;1.07;;;15.50;60.00;;;;;;6254191;28;20216;-69
2023/04/18 14:11:22;;;;;;;1.40;1.30;;;15.50;60.20;;;;;;6257706;28;20184;-69
2023/04/18 14:14:22;;;;;;;1.10;1.00;;;15.30;60.20;;;;;;6287775;28;20182;-70
2023/04/18 14:17:23;;;;;;;1.50;1.20;;;15.20;60.90;;;;;;6280799;28;20200;-69
2023/04/18 14:20:25;;;;;;;1.20;1.10;;;15.10;61.60;;;;;;6277529;28;20226;-67
2023/04/18 14:23:26;;;;;;;1.17;0.97;;;15.00;61.70;;;;;;6285928;28;20276;-68
2023/04/18 14:26:26;;;;;;;1.67;1.10;;;14.90;63.00;;;;;;6255128;28;20212;-69
2023/04/18 14:29:27;;;;;;;1.30;1.10;;;14.80;63.00;;;;;;6291942;28;20203;-69
2023/04/18 14:32:29;;;;;;;1.20;1.10;;;14.70;63.90;;;;;;6275939;28;20205;-68
2023/04/18 14:35:30;;;;;;;2.27;1.13;;;14.60;64.40;;;;;;6277335;28;20237;-68
2023/04/18 14:38:31;;;;;;;1.17;1.07;;;14.50;65.00;;;;;;6302742;28;20182;-67
2023/04/18 14:41:32;;;;;;;1.37;1.10;;;14.30;64.70;;;;;;6285865;28;20193;-67
2023/04/18 14:44:33;;;;;;;1.80;1.27;;;14.30;65.70;;;;;;6259810;28;20312;-67
2023/04/18 14:47:33;;;;;;;1.77;1.53;;;14.10;67.00;;;;;;6276436;28;20267;-67
2023/04/18 14:50:37;;;;;;;1.30;1.20;;;14.00;67.90;;;;;;6289703;28;20651;-67
2023/04/18 14:53:38;;;;;;;1.47;1.37;;;13.90;67.50;;;;;;6261948;28;20208;-67
2023/04/18 14:56:38;;;;;;;1.97;1.33;;;13.90;68.00;;;;;;6270948;28;20216;-67
2023/04/18 14:59:39;;;;;;;2.57;1.47;;;13.80;68.60;;;;;;6292170;28;20232;-67
2023/04/18 15:02:40;;;;;;;1.63;1.30;;;13.80;68.70;;;;;;6281648;28;20177;-67
2023/04/18 15:05:47;;;;;;;1.33;1.23;;;13.90;67.80;;;;;;6277118;28;20184;-67
2023/04/18 15:08:47;;;;;;;1.40;1.30;;;13.80;66.30;;;;;;6290793;28;20194;-67
2023/04/18 15:11:48;;;;;;;2.00;1.40;;;13.90;66.00;;;;;;6305990;28;20181;-67
2023/04/18 15:14:49;;;;;;;2.20;1.70;;;13.90;66.60;;;;;;6291561;28;20203;-65
2023/04/18 15:17:50;;;;;;;1.63;1.53;;;14.00;65.20;;;;;;6275913;28;20292;-68
2023/04/18 15:20:50;;;;;;;2.10;1.70;;;14.00;65.50;;;;;;6293050;28;20194;-70
2023/04/18 15:23:51;;;;;;;1.73;1.53;;;14.00;66.50;;;;;;6285195;28;20269;-69
2023/04/18 15:26:52;;;;;;;1.87;1.67;;;14.00;68.70;;;;;;6283412;28;20213;-70
2023/04/18 15:29:54;;;;;;;1.73;1.60;;;14.00;69.40;;;;;;6272619;28;20236;-70
2023/04/18 15:32:54;;;;;;;2.77;1.90;;;13.90;71.10;;;;;;6286817;28;20260;-69
2023/04/18 15:35:55;;;;;;;2.20;1.50;;;13.80;71.10;;;;;;6261400;28;20191;-70
2023/04/18 15:38:55;;;;;;;2.53;2.33;;;13.70;73.10;;;;;;6282110;28;20231;-70
2023/04/18 15:41:56;;;;;;;2.40;1.97;;;13.60;75.50;;;;;;6276702;28;20220;-70
2023/04/18 15:44:57;;;;;;;2.50;1.70;;;13.40;80.90;;;;;;6281826;28;20192;-70
2023/04/18 15:47:57;;;;;;;2.47;2.27;;;13.20;82.90;;;;;;6286820;28;20231;-71
2023/04/18 15:50:58;;;;;;;2.27;2.00;;;13.00;85.90;;;;;;6283357;28;20185;-70
2023/04/18 15:53:59;;;;;;;3.27;2.20;;;12.60;86.80;;;;;;6290321;28;20240;-70
2023/04/18 15:57:01;;;;;;;2.63;2.43;;;12.30;90.30;;;;;;6287892;28;20189;-70
2023/04/18 16:00:08;;;;;;;3.47;2.73;;;12.00;91.10;;;;;;6280798;28;20206;-70